createdAt,value
2019-03-10T00:00:09.051Z,11.18
2019-03-10T00:01:08.975Z,11.17
2019-03-10T00:02:10.479Z,11.10
2019-03-10T00:03:08.817Z,11.03
2019-03-10T00:04:08.740Z,11.06
2019-03-10T00:05:08.662Z,11.02
2019-03-10T00:06:08.583Z,11.08
2019-03-10T00:07:08.506Z,11.10
2019-03-10T00:08:08.446Z,11.21
2019-03-10T00:09:08.349Z,11.17
2019-03-10T00:10:08.271Z,11.17
2019-03-10T00:11:08.196Z,11.31
2019-03-10T00:12:08.116Z,11.31
2019-03-10T00:13:08.048Z,11.29
2019-03-10T00:14:07.959Z,11.24
2019-03-10T00:15:07.884Z,11.29
2019-03-10T00:16:07.804Z,11.32
2019-03-10T00:17:07.729Z,11.39
2019-03-10T00:18:07.648Z,11.46
2019-03-10T00:19:07.571Z,11.36
2019-03-10T00:20:07.497Z,11.41
2019-03-10T00:21:07.415Z,11.31
2019-03-10T00:22:07.341Z,11.34
2019-03-10T00:23:07.259Z,11.29
2019-03-10T00:24:07.234Z,11.31
2019-03-10T00:25:07.106Z,11.20
2019-03-10T00:26:07.026Z,11.16
2019-03-10T00:27:07.002Z,11.28
2019-03-10T00:28:06.869Z,11.35
2019-03-10T00:29:06.793Z,11.41
2019-03-10T00:30:06.714Z,11.35
2019-03-10T00:31:06.636Z,11.28
2019-03-10T00:32:06.558Z,11.31
2019-03-10T00:33:06.481Z,11.34
2019-03-10T00:34:06.407Z,11.29
2019-03-10T00:35:06.324Z,11.24
2019-03-10T00:36:06.247Z,11.18
2019-03-10T00:37:06.169Z,11.21
2019-03-10T00:38:06.094Z,11.20
2019-03-10T00:39:06.014Z,11.34
2019-03-10T00:40:05.936Z,11.38
2019-03-10T00:41:05.859Z,11.36
2019-03-10T00:42:05.783Z,11.47
2019-03-10T00:43:05.701Z,11.50
2019-03-10T00:44:05.624Z,11.47
2019-03-10T00:45:05.547Z,11.42
2019-03-10T00:46:05.471Z,11.43
2019-03-10T00:47:05.391Z,11.42
2019-03-10T00:48:05.316Z,11.39
2019-03-10T00:49:05.239Z,11.35
2019-03-10T00:50:05.158Z,11.38
2019-03-10T00:51:05.079Z,11.43
2019-03-10T00:52:05.001Z,11.39
2019-03-10T00:53:04.924Z,11.36
2019-03-10T00:54:04.846Z,11.38
2019-03-10T00:55:04.768Z,11.35
2019-03-10T00:56:04.691Z,11.46
2019-03-10T00:57:04.612Z,11.41
2019-03-10T00:58:04.535Z,11.38
2019-03-10T00:59:04.457Z,11.38
2019-03-10T01:00:04.379Z,11.46
2019-03-10T01:01:04.303Z,11.54
2019-03-10T01:02:04.223Z,11.54
2019-03-10T01:03:04.145Z,11.51
2019-03-10T01:04:04.070Z,11.38
2019-03-10T01:05:03.991Z,11.41
2019-03-10T01:06:03.912Z,11.41
2019-03-10T01:07:03.839Z,11.32
2019-03-10T01:08:03.760Z,11.36
2019-03-10T01:09:03.680Z,11.29
2019-03-10T01:10:03.603Z,11.36
2019-03-10T01:11:03.524Z,11.51
2019-03-10T01:12:03.446Z,11.51
2019-03-10T01:13:03.373Z,11.54
2019-03-10T01:14:03.290Z,11.51
2019-03-10T01:15:03.214Z,11.43
2019-03-10T01:16:03.138Z,11.42
2019-03-10T01:17:03.058Z,11.39
2019-03-10T01:18:02.980Z,11.35
2019-03-10T01:19:02.903Z,11.34
2019-03-10T01:20:02.826Z,11.34
2019-03-10T01:21:02.753Z,11.32
2019-03-10T01:22:02.676Z,11.21
2019-03-10T01:23:02.597Z,11.31
2019-03-10T01:24:02.517Z,11.31
2019-03-10T01:25:02.437Z,11.28
2019-03-10T01:26:02.361Z,11.28
2019-03-10T01:27:02.282Z,11.28
2019-03-10T01:28:02.205Z,11.23
2019-03-10T01:29:02.130Z,11.18
2019-03-10T01:30:02.055Z,11.24
2019-03-10T01:31:01.972Z,11.32
2019-03-10T01:32:01.893Z,11.34
2019-03-10T01:33:01.816Z,11.29
2019-03-10T01:34:01.736Z,11.43
2019-03-10T01:35:01.664Z,11.56
2019-03-10T01:36:01.585Z,11.46
2019-03-10T01:37:01.504Z,11.47
2019-03-10T01:38:01.426Z,11.46
2019-03-10T01:39:01.350Z,11.39
2019-03-10T01:40:01.271Z,11.34
2019-03-10T01:41:01.193Z,11.34
2019-03-10T01:42:01.115Z,11.32
2019-03-10T01:43:01.038Z,11.34
2019-03-10T01:44:00.959Z,11.35
2019-03-10T01:45:00.883Z,11.32
2019-03-10T01:46:00.803Z,11.28
2019-03-10T01:47:00.726Z,11.34
2019-03-10T01:48:00.648Z,11.31
2019-03-10T01:49:00.572Z,11.59
2019-03-10T01:50:00.494Z,11.57
2019-03-10T01:51:00.415Z,11.60
2019-03-10T01:52:00.360Z,11.59
2019-03-10T01:53:00.260Z,11.60
2019-03-10T01:54:00.180Z,11.65
2019-03-10T01:55:00.262Z,11.64
2019-03-10T01:56:00.025Z,11.61
2019-03-10T01:56:59.948Z,11.51
2019-03-10T01:57:59.874Z,11.49
2019-03-10T01:58:59.792Z,11.42
2019-03-10T01:59:59.714Z,11.38
2019-03-10T02:00:59.637Z,11.42
2019-03-10T02:01:59.576Z,11.35
2019-03-10T02:02:59.480Z,11.29
2019-03-10T02:03:59.402Z,11.28
2019-03-10T02:04:59.326Z,11.17
2019-03-10T02:05:59.247Z,11.14
2019-03-10T02:06:59.170Z,11.17
2019-03-10T02:07:59.091Z,11.14
2019-03-10T02:08:59.015Z,11.13
2019-03-10T02:09:58.935Z,11.29
2019-03-10T02:10:58.860Z,11.21
2019-03-10T02:11:58.780Z,11.21
2019-03-10T02:12:58.703Z,11.14
2019-03-10T02:13:58.625Z,11.23
2019-03-10T02:14:58.546Z,11.28
2019-03-10T02:15:58.469Z,11.28
2019-03-10T02:16:58.392Z,11.23
2019-03-10T02:17:58.313Z,11.20
2019-03-10T02:18:58.238Z,11.35
2019-03-10T02:19:58.158Z,11.28
2019-03-10T02:20:58.080Z,11.23
2019-03-10T02:21:58.002Z,11.24
2019-03-10T02:22:57.927Z,11.18
2019-03-10T02:23:57.847Z,11.05
2019-03-10T02:24:57.769Z,11.16
2019-03-10T02:25:57.690Z,11.14
2019-03-10T02:26:57.613Z,11.14
2019-03-10T02:27:57.564Z,11.14
2019-03-10T02:28:57.458Z,11.13
2019-03-10T02:29:57.378Z,11.02
2019-03-10T02:30:57.305Z,11.02
2019-03-10T02:31:57.257Z,11.06
2019-03-10T02:32:57.152Z,11.06
2019-03-10T02:33:57.069Z,10.95
2019-03-10T02:34:56.993Z,10.99
2019-03-10T02:35:56.914Z,11.05
2019-03-10T02:36:56.837Z,11.08
2019-03-10T02:37:56.759Z,10.95
2019-03-10T02:38:56.685Z,10.98
2019-03-10T02:39:56.604Z,11.14
2019-03-10T02:40:56.526Z,11.18
2019-03-10T02:41:56.446Z,11.17
2019-03-10T02:42:56.370Z,11.11
2019-03-10T02:43:56.291Z,11.08
2019-03-10T02:44:56.233Z,11.18
2019-03-10T02:45:56.136Z,11.26
2019-03-10T02:46:56.059Z,11.14
2019-03-10T02:47:55.981Z,11.23
2019-03-10T02:48:55.905Z,11.13
2019-03-10T02:49:55.828Z,11.03
2019-03-10T02:50:55.748Z,10.98
2019-03-10T02:51:55.671Z,10.99
2019-03-10T02:52:55.592Z,10.95
2019-03-10T02:53:55.515Z,11.02
2019-03-10T02:54:55.447Z,10.99
2019-03-10T02:55:55.360Z,11.03
2019-03-10T02:56:55.284Z,11.11
2019-03-10T02:57:55.205Z,11.14
2019-03-10T02:58:55.126Z,11.05
2019-03-10T02:59:55.049Z,11.08
2019-03-10T03:00:54.972Z,11.10
2019-03-10T03:01:54.892Z,11.20
2019-03-10T03:02:54.917Z,11.14
2019-03-10T03:03:54.741Z,11.14
2019-03-10T03:04:54.671Z,11.05
2019-03-10T03:05:54.590Z,11.00
2019-03-10T03:06:54.508Z,11.08
2019-03-10T03:07:54.428Z,11.03
2019-03-10T03:08:54.353Z,11.02
2019-03-10T03:09:54.274Z,11.00
2019-03-10T03:10:54.197Z,10.99
2019-03-10T03:11:54.124Z,10.93
2019-03-10T03:12:54.042Z,10.98
2019-03-10T03:13:53.962Z,10.92
2019-03-10T03:14:53.886Z,10.88
2019-03-10T03:15:53.810Z,10.99
2019-03-10T03:16:53.733Z,10.81
2019-03-10T03:17:53.654Z,10.91
2019-03-10T03:18:53.577Z,10.84
2019-03-10T03:19:53.532Z,10.91
2019-03-10T03:20:53.429Z,10.84
2019-03-10T03:21:53.347Z,10.96
2019-03-10T03:22:53.267Z,10.93
2019-03-10T03:23:53.189Z,11.00
2019-03-10T03:24:53.151Z,10.99
2019-03-10T03:25:53.033Z,11.14
2019-03-10T03:26:52.957Z,11.02
2019-03-10T03:27:52.884Z,10.98
2019-03-10T03:28:52.803Z,11.03
2019-03-10T03:29:52.723Z,11.02
2019-03-10T03:30:52.647Z,11.02
2019-03-10T03:31:52.570Z,10.88
2019-03-10T03:32:52.493Z,11.00
2019-03-10T03:33:52.415Z,10.84
2019-03-10T03:34:52.348Z,10.95
2019-03-10T03:35:52.259Z,10.85
2019-03-10T03:36:52.184Z,10.93
2019-03-10T03:37:52.105Z,10.87
2019-03-10T03:38:52.031Z,10.93
2019-03-10T03:39:51.955Z,10.92
2019-03-10T03:40:51.882Z,10.98
2019-03-10T03:41:51.796Z,10.93
2019-03-10T03:42:51.719Z,10.96
2019-03-10T03:43:51.641Z,10.95
2019-03-10T03:44:51.565Z,10.95
2019-03-10T03:45:51.484Z,11.02
2019-03-10T03:46:51.411Z,11.03
2019-03-10T03:47:51.331Z,10.95
2019-03-10T03:48:51.257Z,11.00
2019-03-10T03:49:51.176Z,10.95
2019-03-10T03:50:51.101Z,11.00
2019-03-10T03:51:51.022Z,10.88
2019-03-10T03:52:50.945Z,10.95
2019-03-10T03:53:50.874Z,10.93
2019-03-10T03:54:50.793Z,10.98
2019-03-10T03:55:50.711Z,10.96
2019-03-10T03:56:50.635Z,10.85
2019-03-10T03:57:50.557Z,10.85
2019-03-10T03:58:50.483Z,10.81
2019-03-10T03:59:50.403Z,10.87
2019-03-10T04:00:50.326Z,10.87
2019-03-10T04:01:50.247Z,10.87
2019-03-10T04:02:50.224Z,10.84
2019-03-10T04:03:50.093Z,10.78
2019-03-10T04:04:50.065Z,10.80
2019-03-10T04:05:49.939Z,10.74
2019-03-10T04:06:49.867Z,10.75
2019-03-10T04:07:49.786Z,10.67
2019-03-10T04:08:49.715Z,10.66
2019-03-10T04:09:49.729Z,10.62
2019-03-10T04:10:49.551Z,10.59
2019-03-10T04:11:49.474Z,10.62
2019-03-10T04:12:49.395Z,10.60
2019-03-10T04:13:49.319Z,10.59
2019-03-10T04:14:49.342Z,10.43
2019-03-10T04:15:49.170Z,10.55
2019-03-10T04:16:49.087Z,10.46
2019-03-10T04:17:49.010Z,10.34
2019-03-10T04:18:48.931Z,10.26
2019-03-10T04:19:48.855Z,10.23
2019-03-10T04:20:48.783Z,10.22
2019-03-10T04:21:48.698Z,10.15
2019-03-10T04:22:48.621Z,10.21
2019-03-10T04:23:48.544Z,10.16
2019-03-10T04:24:48.466Z,10.23
2019-03-10T04:25:48.397Z,10.25
2019-03-10T04:26:48.314Z,10.11
2019-03-10T04:27:48.234Z,10.21
2019-03-10T04:28:48.155Z,10.13
2019-03-10T04:29:48.079Z,10.22
2019-03-10T04:30:48.004Z,10.15
2019-03-10T04:31:47.926Z,10.13
2019-03-10T04:32:47.850Z,10.13
2019-03-10T04:33:47.772Z,10.18
2019-03-10T04:34:47.689Z,10.15
2019-03-10T04:35:47.612Z,10.21
2019-03-10T04:36:47.537Z,10.21
2019-03-10T04:37:47.456Z,10.03
2019-03-10T04:38:47.384Z,10.08
2019-03-10T04:39:47.301Z,10.06
2019-03-10T04:40:47.223Z,9.93
2019-03-10T04:41:47.146Z,10.01
2019-03-10T04:42:47.068Z,9.90
2019-03-10T04:43:46.989Z,9.96
2019-03-10T04:44:46.912Z,9.88
2019-03-10T04:45:46.833Z,9.90
2019-03-10T04:46:46.754Z,9.89
2019-03-10T04:47:46.678Z,9.92
2019-03-10T04:48:46.603Z,9.92
2019-03-10T04:49:46.522Z,9.89
2019-03-10T04:50:46.444Z,9.89
2019-03-10T04:51:46.366Z,9.83
2019-03-10T04:52:46.287Z,9.83
2019-03-10T04:53:46.210Z,9.90
2019-03-10T04:54:46.131Z,9.82
2019-03-10T04:55:46.056Z,9.89
2019-03-10T04:56:45.976Z,9.96
2019-03-10T04:57:45.952Z,9.92
2019-03-10T04:58:45.818Z,9.88
2019-03-10T04:59:45.742Z,9.88
2019-03-10T05:00:45.666Z,10.01
2019-03-10T05:01:45.582Z,9.93
2019-03-10T05:02:45.505Z,9.96
2019-03-10T05:03:45.430Z,9.93
2019-03-10T05:04:45.349Z,9.98
2019-03-10T05:05:45.270Z,10.06
2019-03-10T05:06:45.192Z,9.93
2019-03-10T05:07:45.113Z,10.00
2019-03-10T05:08:45.037Z,9.92
2019-03-10T05:09:44.956Z,9.86
2019-03-10T05:10:44.877Z,9.82
2019-03-10T05:11:44.800Z,9.89
2019-03-10T05:12:44.721Z,9.97
2019-03-10T05:13:44.643Z,9.90
2019-03-10T05:14:44.563Z,9.89
2019-03-10T05:15:44.487Z,10.00
2019-03-10T05:16:44.407Z,9.96
2019-03-10T05:17:44.329Z,9.98
2019-03-10T05:18:44.261Z,9.92
2019-03-10T05:19:44.171Z,9.96
2019-03-10T05:20:44.094Z,9.97
2019-03-10T05:21:44.014Z,9.92
2019-03-10T05:22:43.935Z,10.04
2019-03-10T05:23:43.858Z,10.01
2019-03-10T05:24:43.779Z,10.01
2019-03-10T05:25:43.702Z,10.04
2019-03-10T05:26:43.622Z,10.01
2019-03-10T05:27:43.543Z,9.90
2019-03-10T05:28:43.463Z,9.98
2019-03-10T05:29:43.397Z,9.93
2019-03-10T05:30:43.305Z,9.92
2019-03-10T05:31:43.227Z,9.98
2019-03-10T05:32:43.148Z,9.97
2019-03-10T05:33:43.068Z,9.89
2019-03-10T05:34:42.990Z,9.92
2019-03-10T05:35:42.911Z,9.96
2019-03-10T05:36:42.834Z,9.93
2019-03-10T05:37:42.755Z,9.93
2019-03-10T05:38:42.675Z,10.00
2019-03-10T05:39:42.597Z,9.93
2019-03-10T05:40:42.517Z,9.97
2019-03-10T05:41:42.436Z,9.93
2019-03-10T05:42:42.358Z,9.92
2019-03-10T05:43:42.281Z,9.85
2019-03-10T05:44:42.202Z,9.90
2019-03-10T05:45:42.122Z,9.88
2019-03-10T05:46:42.044Z,9.85
2019-03-10T05:47:41.966Z,9.78
2019-03-10T05:48:41.887Z,9.82
2019-03-10T05:49:41.809Z,9.85
2019-03-10T05:50:41.729Z,9.71
2019-03-10T05:51:41.651Z,9.78
2019-03-10T05:52:41.573Z,9.78
2019-03-10T05:53:41.515Z,9.78
2019-03-10T05:54:41.414Z,9.80
2019-03-10T05:55:41.335Z,9.80
2019-03-10T05:56:41.258Z,9.71
2019-03-10T05:57:41.178Z,9.70
2019-03-10T05:58:41.099Z,9.70
2019-03-10T05:59:41.022Z,9.68
2019-03-10T06:00:42.944Z,9.67
2019-03-10T06:01:40.863Z,9.71
2019-03-10T06:02:40.804Z,9.68
2019-03-10T06:03:40.708Z,9.68
2019-03-10T06:04:40.628Z,9.72
2019-03-10T06:05:40.548Z,9.75
2019-03-10T06:06:40.469Z,9.74
2019-03-10T06:07:40.390Z,9.68
2019-03-10T06:08:40.315Z,9.71
2019-03-10T06:09:40.232Z,9.67
2019-03-10T06:10:40.153Z,9.72
2019-03-10T06:11:40.077Z,9.68
2019-03-10T06:12:39.997Z,9.70
2019-03-10T06:13:39.918Z,9.65
2019-03-10T06:14:39.839Z,9.65
2019-03-10T06:15:39.761Z,9.60
2019-03-10T06:16:39.682Z,9.56
2019-03-10T06:17:39.604Z,9.58
2019-03-10T06:18:39.523Z,9.55
2019-03-10T06:19:39.450Z,9.58
2019-03-10T06:20:39.370Z,9.63
2019-03-10T06:21:39.290Z,9.60
2019-03-10T06:22:39.211Z,9.55
2019-03-10T06:23:39.133Z,9.61
2019-03-10T06:24:39.057Z,9.61
2019-03-10T06:25:38.973Z,9.53
2019-03-10T06:26:38.895Z,9.61
2019-03-10T06:27:38.818Z,9.63
2019-03-10T06:28:38.739Z,9.63
2019-03-10T06:29:38.659Z,9.61
2019-03-10T06:30:38.581Z,9.55
2019-03-10T06:31:38.506Z,9.53
2019-03-10T06:32:38.424Z,9.56
2019-03-10T06:33:38.345Z,9.58
2019-03-10T06:34:38.265Z,9.40
2019-03-10T06:35:38.187Z,9.40
2019-03-10T06:36:38.108Z,9.40
2019-03-10T06:37:38.028Z,9.46
2019-03-10T06:38:37.951Z,9.55
2019-03-10T06:39:37.871Z,9.47
2019-03-10T06:40:37.792Z,9.43
2019-03-10T06:41:37.716Z,9.53
2019-03-10T06:42:37.634Z,9.52
2019-03-10T06:43:37.558Z,9.47
2019-03-10T06:44:37.477Z,9.43
2019-03-10T06:45:37.397Z,9.47
2019-03-10T06:46:37.318Z,9.38
2019-03-10T06:47:37.240Z,9.45
2019-03-10T06:48:37.160Z,9.56
2019-03-10T06:49:37.231Z,9.58
2019-03-10T06:50:37.003Z,9.49
2019-03-10T06:51:36.924Z,9.49
2019-03-10T06:52:36.846Z,9.52
2019-03-10T06:53:36.765Z,9.45
2019-03-10T06:54:36.686Z,9.55
2019-03-10T06:55:36.609Z,9.50
2019-03-10T06:56:36.529Z,9.50
2019-03-10T06:57:36.448Z,9.53
2019-03-10T06:58:36.371Z,9.60
2019-03-10T06:59:36.292Z,9.60
2019-03-10T07:00:36.215Z,9.56
2019-03-10T07:01:36.133Z,9.56
2019-03-10T07:02:36.055Z,9.58
2019-03-10T07:03:35.977Z,9.56
2019-03-10T07:04:35.896Z,9.56
2019-03-10T07:05:35.817Z,9.70
2019-03-10T07:06:35.739Z,9.68
2019-03-10T07:07:35.665Z,9.74
2019-03-10T07:08:35.581Z,9.82
2019-03-10T07:09:35.502Z,9.86
2019-03-10T07:10:35.423Z,9.71
2019-03-10T07:11:35.347Z,9.78
2019-03-10T07:12:35.263Z,9.70
2019-03-10T07:13:35.183Z,9.74
2019-03-10T07:14:35.105Z,9.67
2019-03-10T07:15:35.025Z,9.70
2019-03-10T07:16:34.951Z,9.70
2019-03-10T07:17:34.868Z,9.70
2019-03-10T07:18:34.790Z,9.71
2019-03-10T07:19:34.713Z,9.68
2019-03-10T07:20:34.631Z,9.70
2019-03-10T07:21:34.551Z,9.75
2019-03-10T07:22:34.473Z,9.71
2019-03-10T07:23:34.393Z,9.79
2019-03-10T07:24:34.316Z,9.75
2019-03-10T07:25:34.238Z,9.71
2019-03-10T07:26:34.156Z,9.83
2019-03-10T07:27:34.078Z,9.79
2019-03-10T07:28:33.999Z,9.74
2019-03-10T07:29:33.920Z,9.72
2019-03-10T07:30:33.840Z,9.82
2019-03-10T07:31:33.763Z,9.89
2019-03-10T07:32:33.683Z,9.93
2019-03-10T07:33:33.603Z,9.93
2019-03-10T07:34:33.525Z,9.93
2019-03-10T07:35:33.450Z,9.93
2019-03-10T07:36:33.367Z,9.98
2019-03-10T07:37:33.288Z,10.06
2019-03-10T07:38:33.208Z,10.03
2019-03-10T07:39:33.131Z,10.03
2019-03-10T07:40:33.053Z,10.03
2019-03-10T07:41:32.973Z,10.03
2019-03-10T07:42:32.903Z,10.13
2019-03-10T07:43:32.915Z,10.13
2019-03-10T07:44:32.785Z,10.10
2019-03-10T07:45:32.658Z,10.18
2019-03-10T07:46:32.579Z,10.16
2019-03-10T07:47:32.501Z,10.26
2019-03-10T07:48:32.424Z,10.26
2019-03-10T07:49:32.343Z,10.36
2019-03-10T07:50:32.270Z,10.36
2019-03-10T07:51:32.187Z,10.43
2019-03-10T07:52:32.107Z,10.33
2019-03-10T07:53:32.028Z,10.44
2019-03-10T07:54:31.950Z,10.40
2019-03-10T07:55:31.871Z,10.53
2019-03-10T07:56:31.792Z,10.55
2019-03-10T07:57:31.713Z,10.59
2019-03-10T07:58:31.635Z,10.49
2019-03-10T07:59:31.558Z,10.58
2019-03-10T08:00:31.479Z,10.60
2019-03-10T08:01:31.401Z,10.67
2019-03-10T08:02:31.321Z,10.67
2019-03-10T08:03:31.243Z,10.66
2019-03-10T08:04:31.163Z,10.73
2019-03-10T08:05:31.085Z,10.84
2019-03-10T08:06:31.006Z,10.81
2019-03-10T08:07:30.932Z,10.85
2019-03-10T08:08:30.850Z,10.92
2019-03-10T08:09:30.771Z,10.93
2019-03-10T08:10:30.693Z,10.93
2019-03-10T08:11:30.615Z,10.99
2019-03-10T08:12:30.537Z,10.92
2019-03-10T08:13:30.461Z,10.99
2019-03-10T08:14:30.381Z,10.99
2019-03-10T08:15:30.303Z,11.08
2019-03-10T08:16:30.225Z,11.14
2019-03-10T08:17:30.146Z,11.17
2019-03-10T08:18:30.068Z,11.32
2019-03-10T08:19:29.991Z,11.28
2019-03-10T08:20:29.914Z,11.23
2019-03-10T08:21:29.835Z,11.23
2019-03-10T08:22:29.756Z,11.23
2019-03-10T08:23:29.679Z,11.16
2019-03-10T08:24:29.601Z,11.17
2019-03-10T08:25:29.524Z,11.18
2019-03-10T08:26:29.445Z,11.18
2019-03-10T08:27:29.367Z,11.16
2019-03-10T08:28:29.296Z,11.17
2019-03-10T08:29:29.212Z,11.26
2019-03-10T08:30:29.134Z,11.32
2019-03-10T08:31:29.058Z,11.31
2019-03-10T08:32:28.979Z,11.29
2019-03-10T08:33:28.902Z,11.34
2019-03-10T08:34:28.824Z,11.36
2019-03-10T08:35:28.749Z,11.31
2019-03-10T08:36:28.669Z,11.36
2019-03-10T08:37:28.591Z,11.36
2019-03-10T08:38:28.513Z,11.31
2019-03-10T08:39:28.435Z,11.31
2019-03-10T08:40:28.359Z,11.36
2019-03-10T08:41:28.280Z,11.35
2019-03-10T08:42:28.204Z,11.39
2019-03-10T08:43:28.125Z,11.46
2019-03-10T08:44:28.048Z,11.42
2019-03-10T08:45:27.970Z,11.47
2019-03-10T08:46:27.893Z,11.43
2019-03-10T08:47:27.816Z,11.36
2019-03-10T08:48:27.739Z,11.51
2019-03-10T08:49:27.663Z,11.51
2019-03-10T08:50:27.589Z,11.56
2019-03-10T08:51:27.508Z,11.56
2019-03-10T08:52:27.428Z,11.59
2019-03-10T08:53:27.351Z,11.60
2019-03-10T08:54:27.274Z,11.60
2019-03-10T08:55:27.197Z,11.68
2019-03-10T08:56:27.120Z,11.67
2019-03-10T08:57:27.041Z,11.74
2019-03-10T08:58:26.963Z,11.75
2019-03-10T08:59:26.888Z,11.81
2019-03-10T09:00:26.810Z,11.90
2019-03-10T09:01:26.731Z,11.93
2019-03-10T09:02:26.679Z,11.95
2019-03-10T09:03:26.578Z,12.00
2019-03-10T09:04:26.501Z,11.95
2019-03-10T09:05:26.422Z,12.09
2019-03-10T09:06:26.347Z,12.06
2019-03-10T09:07:26.268Z,12.06
2019-03-10T09:08:26.194Z,12.12
2019-03-10T09:09:26.116Z,12.02
2019-03-10T09:10:26.038Z,12.08
2019-03-10T09:11:25.962Z,12.26
2019-03-10T09:12:25.884Z,12.21
2019-03-10T09:13:25.806Z,12.16
2019-03-10T09:14:25.731Z,12.21
2019-03-10T09:15:25.653Z,12.28
2019-03-10T09:16:25.577Z,12.30
2019-03-10T09:17:25.498Z,12.34
2019-03-10T09:18:25.421Z,12.28
2019-03-10T09:19:25.348Z,12.26
2019-03-10T09:20:25.276Z,12.36
2019-03-10T09:21:25.190Z,12.28
2019-03-10T09:22:25.114Z,12.41
2019-03-10T09:23:25.038Z,12.44
2019-03-10T09:24:24.962Z,12.42
2019-03-10T09:25:24.883Z,12.60
2019-03-10T09:26:24.806Z,12.60
2019-03-10T09:27:24.730Z,12.67
2019-03-10T09:28:24.653Z,12.64
2019-03-10T09:29:24.577Z,12.73
2019-03-10T09:30:24.500Z,12.66
2019-03-10T09:31:24.423Z,12.71
2019-03-10T09:32:24.345Z,12.69
2019-03-10T09:33:24.269Z,12.73
2019-03-10T09:34:24.194Z,12.73
2019-03-10T09:35:24.116Z,12.70
2019-03-10T09:36:24.040Z,12.81
2019-03-10T09:37:23.964Z,12.86
2019-03-10T09:38:23.887Z,12.78
2019-03-10T09:39:23.810Z,12.63
2019-03-10T09:40:23.734Z,12.73
2019-03-10T09:41:23.656Z,12.70
2019-03-10T09:42:23.587Z,12.78
2019-03-10T09:43:23.504Z,12.85
2019-03-10T09:44:23.428Z,12.84
2019-03-10T09:45:23.350Z,12.88
2019-03-10T09:46:23.274Z,12.89
2019-03-10T09:47:23.197Z,12.89
2019-03-10T09:48:23.121Z,12.88
2019-03-10T09:49:23.047Z,12.89
2019-03-10T09:50:22.967Z,12.88
2019-03-10T09:51:22.892Z,12.96
2019-03-10T09:52:22.815Z,12.96
2019-03-10T09:53:22.744Z,13.00
2019-03-10T09:54:22.662Z,13.09
2019-03-10T09:55:22.586Z,13.14
2019-03-10T09:56:22.511Z,13.25
2019-03-10T09:57:22.432Z,13.27
2019-03-10T09:58:22.356Z,13.29
2019-03-10T09:59:22.280Z,13.40
2019-03-10T10:00:22.203Z,13.56
2019-03-10T10:01:22.158Z,13.62
2019-03-10T10:02:22.054Z,13.76
2019-03-10T10:03:21.979Z,13.76
2019-03-10T10:04:21.899Z,13.68
2019-03-10T10:05:21.824Z,13.65
2019-03-10T10:06:21.747Z,13.68
2019-03-10T10:07:21.671Z,13.74
2019-03-10T10:08:21.596Z,13.68
2019-03-10T10:09:21.519Z,13.58
2019-03-10T10:10:21.443Z,13.58
2019-03-10T10:11:21.368Z,13.52
2019-03-10T10:12:21.293Z,13.44
2019-03-10T10:13:21.215Z,13.47
2019-03-10T10:14:21.140Z,13.43
2019-03-10T10:15:21.065Z,13.37
2019-03-10T10:16:20.990Z,13.27
2019-03-10T10:17:20.912Z,13.27
2019-03-10T10:18:20.836Z,13.29
2019-03-10T10:19:20.761Z,13.43
2019-03-10T10:20:20.683Z,13.38
2019-03-10T10:21:20.607Z,13.47
2019-03-10T10:22:20.531Z,13.43
2019-03-10T10:23:20.461Z,13.53
2019-03-10T10:24:20.380Z,13.61
2019-03-10T10:25:20.300Z,13.70
2019-03-10T10:26:20.229Z,13.76
2019-03-10T10:27:20.356Z,13.78
2019-03-10T10:28:20.073Z,13.80
2019-03-10T10:29:19.996Z,13.84
2019-03-10T10:30:19.920Z,13.80
2019-03-10T10:31:19.844Z,13.80
2019-03-10T10:32:19.768Z,13.71
2019-03-10T10:33:19.688Z,13.77
2019-03-10T10:34:19.616Z,13.68
2019-03-10T10:35:19.536Z,13.61
2019-03-10T10:36:19.459Z,13.52
2019-03-10T10:37:19.393Z,13.47
2019-03-10T10:38:19.344Z,13.27
2019-03-10T10:39:19.231Z,13.17
2019-03-10T10:40:19.153Z,13.17
2019-03-10T10:41:19.076Z,13.04
2019-03-10T10:42:18.999Z,13.00
2019-03-10T10:43:18.922Z,13.00
2019-03-10T10:44:18.848Z,12.96
2019-03-10T10:45:18.771Z,12.88
2019-03-10T10:46:18.695Z,12.96
2019-03-10T10:47:18.615Z,13.00
2019-03-10T10:48:18.540Z,12.89
2019-03-10T10:49:18.460Z,12.85
2019-03-10T10:50:18.383Z,12.97
2019-03-10T10:51:18.306Z,13.00
2019-03-10T10:52:18.229Z,13.03
2019-03-10T10:53:18.152Z,13.07
2019-03-10T10:54:18.078Z,13.06
2019-03-10T10:55:18.003Z,13.00
2019-03-10T10:56:17.920Z,13.04
2019-03-10T10:57:17.862Z,13.04
2019-03-10T10:58:17.766Z,13.19
2019-03-10T10:59:17.689Z,13.19
2019-03-10T11:00:17.612Z,13.10
2019-03-10T11:01:17.536Z,13.11
2019-03-10T11:02:17.457Z,13.18
2019-03-10T11:03:17.379Z,13.32
2019-03-10T11:04:17.302Z,13.28
2019-03-10T11:05:17.224Z,13.22
2019-03-10T11:06:19.582Z,13.19
2019-03-10T11:07:17.070Z,13.19
2019-03-10T11:08:16.992Z,13.32
2019-03-10T11:09:16.915Z,13.21
2019-03-10T11:10:16.837Z,13.11
2019-03-10T11:11:16.761Z,13.14
2019-03-10T11:12:16.687Z,13.10
2019-03-10T11:13:16.605Z,13.22
2019-03-10T11:14:16.529Z,13.18
2019-03-10T11:15:16.450Z,13.22
2019-03-10T11:16:16.373Z,13.18
2019-03-10T11:17:16.295Z,13.09
2019-03-10T11:18:16.222Z,13.02
2019-03-10T11:19:16.142Z,12.85
2019-03-10T11:20:16.064Z,12.55
2019-03-10T11:21:15.989Z,12.41
2019-03-10T11:22:15.909Z,12.23
2019-03-10T11:23:15.832Z,12.09
2019-03-10T11:24:15.759Z,12.05
2019-03-10T11:25:15.678Z,12.15
2019-03-10T11:26:15.600Z,13.43
2019-03-10T11:27:15.526Z,14.71
2019-03-10T11:28:15.447Z,15.10
2019-03-10T11:29:15.369Z,15.08
2019-03-10T11:30:15.295Z,15.53
2019-03-10T11:31:15.218Z,15.97
2019-03-10T11:32:15.143Z,16.20
2019-03-10T11:33:15.071Z,15.94
2019-03-10T11:34:14.993Z,15.66
2019-03-10T11:35:14.919Z,15.03
2019-03-10T11:36:14.846Z,14.49
2019-03-10T11:37:14.771Z,14.32
2019-03-10T11:38:14.703Z,14.13
2019-03-10T11:39:14.625Z,14.01
2019-03-10T11:40:14.551Z,13.84
2019-03-10T11:41:14.478Z,13.87
2019-03-10T11:42:14.404Z,13.74
2019-03-10T11:43:14.330Z,13.65
2019-03-10T11:44:14.256Z,13.62
2019-03-10T11:45:14.184Z,13.55
2019-03-10T11:46:14.106Z,13.58
2019-03-10T11:47:14.032Z,13.44
2019-03-10T11:48:13.958Z,13.44
2019-03-10T11:49:13.882Z,13.37
2019-03-10T11:50:15.139Z,13.43
2019-03-10T11:51:13.732Z,13.40
2019-03-10T11:52:13.658Z,13.36
2019-03-10T11:53:19.229Z,13.28
2019-03-10T11:54:13.507Z,13.27
2019-03-10T11:55:13.537Z,13.21
2019-03-10T11:56:13.356Z,13.18
2019-03-10T11:57:13.320Z,13.07
2019-03-10T11:58:13.205Z,13.02
2019-03-10T11:59:13.128Z,13.00
2019-03-10T12:00:13.154Z,12.86
2019-03-10T12:01:12.977Z,12.85
2019-03-10T12:02:16.255Z,12.70
2019-03-10T12:03:12.826Z,12.70
2019-03-10T12:04:12.752Z,12.88
2019-03-10T12:05:12.672Z,12.97
2019-03-10T12:06:12.596Z,12.96
2019-03-10T12:07:12.520Z,12.97
2019-03-10T12:08:12.446Z,13.00
2019-03-10T12:09:12.368Z,13.03
2019-03-10T12:10:12.293Z,13.00
2019-03-10T12:11:12.216Z,13.09
2019-03-10T12:12:12.142Z,13.03
2019-03-10T12:13:12.063Z,13.18
2019-03-10T12:14:11.986Z,13.24
2019-03-10T12:15:11.914Z,13.25
2019-03-10T12:16:11.846Z,13.38
2019-03-10T12:17:11.759Z,13.36
2019-03-10T12:18:11.686Z,13.27
2019-03-10T12:19:11.604Z,13.32
2019-03-10T12:20:11.529Z,13.18
2019-03-10T12:21:11.451Z,13.25
2019-03-10T12:22:11.374Z,13.21
2019-03-10T12:23:11.299Z,13.21
2019-03-10T12:24:11.225Z,13.19
2019-03-10T12:25:11.146Z,13.28
2019-03-10T12:26:11.068Z,13.21
2019-03-10T12:27:10.996Z,13.29
2019-03-10T12:28:10.915Z,13.53
2019-03-10T12:29:10.840Z,13.53
2019-03-10T12:30:10.762Z,13.53
2019-03-10T12:31:10.687Z,13.45
2019-03-10T12:32:10.609Z,13.43
2019-03-10T12:33:10.532Z,13.56
2019-03-10T12:34:10.479Z,13.66
2019-03-10T12:35:10.383Z,13.81
2019-03-10T12:36:10.303Z,13.94
2019-03-10T12:37:10.226Z,13.98
2019-03-10T12:38:10.151Z,14.19
2019-03-10T12:39:10.073Z,15.18
2019-03-10T12:40:09.996Z,16.33
2019-03-10T12:41:10.020Z,17.33
2019-03-10T12:42:09.845Z,16.85
2019-03-10T12:43:09.773Z,16.74
2019-03-10T12:44:09.697Z,16.10
2019-03-10T12:45:09.621Z,15.63
2019-03-10T12:46:09.597Z,15.67
2019-03-10T12:47:09.476Z,15.46
2019-03-10T12:48:09.402Z,16.18
2019-03-10T12:49:09.327Z,17.29
2019-03-10T12:50:09.260Z,18.19
2019-03-10T12:51:09.182Z,18.29
2019-03-10T12:52:09.141Z,17.54
2019-03-10T12:53:09.037Z,18.18
2019-03-10T12:54:08.966Z,18.29
2019-03-10T12:55:08.895Z,17.15
2019-03-10T12:56:08.824Z,16.30
2019-03-10T12:57:08.752Z,15.97